sensor_id;sensor_type;location;lat;lon;timestamp;P1;durP1;ratioP1;P2;durP2;ratioP2
66087;SDS011;52872;52.994;6.940;2022-10-31T00:01:16;25.15;;;13.93;;
66087;SDS011;52872;52.994;6.940;2022-10-31T00:03:45;24.63;;;14.40;;
66087;SDS011;52872;52.994;6.940;2022-10-31T00:06:12;26.17;;;14.57;;
66087;SDS011;52872;52.994;6.940;2022-10-31T00:08:39;28.48;;;15.80;;
66087;SDS011;52872;52.994;6.940;2022-10-31T00:11:09;26.23;;;15.38;;
66087;SDS011;52872;52.994;6.940;2022-10-31T00:13:37;28.75;;;15.48;;
66087;SDS011;52872;52.994;6.940;2022-10-31T00:16:04;27.63;;;16.50;;
66087;SDS011;52872;52.994;6.940;2022-10-31T00:18:31;30.23;;;16.95;;
66087;SDS011;52872;52.994;6.940;2022-10-31T00:20:59;30.20;;;17.75;;
66087;SDS011;52872;52.994;6.940;2022-10-31T00:23:29;31.60;;;18.38;;
66087;SDS011;52872;52.994;6.940;2022-10-31T00:26:00;30.88;;;18.38;;
66087;SDS011;52872;52.994;6.940;2022-10-31T00:28:28;30.90;;;18.48;;
66087;SDS011;52872;52.994;6.940;2022-10-31T00:31:00;32.85;;;18.10;;
66087;SDS011;52872;52.994;6.940;2022-10-31T00:33:27;34.65;;;19.10;;
66087;SDS011;52872;52.994;6.940;2022-10-31T00:35:55;32.28;;;18.23;;
66087;SDS011;52872;52.994;6.940;2022-10-31T00:38:22;37.45;;;19.92;;
66087;SDS011;52872;52.994;6.940;2022-10-31T00:40:49;36.17;;;21.27;;
66087;SDS011;52872;52.994;6.940;2022-10-31T00:43:16;34.95;;;20.80;;
66087;SDS011;52872;52.994;6.940;2022-10-31T00:45:43;36.40;;;20.35;;
66087;SDS011;52872;52.994;6.940;2022-10-31T00:48:10;35.20;;;20.02;;
66087;SDS011;52872;52.994;6.940;2022-10-31T00:50:37;34.08;;;19.17;;
66087;SDS011;52872;52.994;6.940;2022-10-31T00:53:05;35.05;;;19.90;;
66087;SDS011;52872;52.994;6.940;2022-10-31T00:55:32;35.92;;;20.15;;
66087;SDS011;52872;52.994;6.940;2022-10-31T00:57:59;32.50;;;19.13;;
66087;SDS011;52872;52.994;6.940;2022-10-31T01:00:27;34.08;;;19.90;;
66087;SDS011;52872;52.994;6.940;2022-10-31T01:02:54;34.30;;;20.17;;
66087;SDS011;52872;52.994;6.940;2022-10-31T01:05:22;36.55;;;20.55;;
66087;SDS011;52872;52.994;6.940;2022-10-31T01:07:49;40.22;;;20.02;;
66087;SDS011;52872;52.994;6.940;2022-10-31T01:10:16;35.78;;;19.90;;
66087;SDS011;52872;52.994;6.940;2022-10-31T01:12:45;35.00;;;18.88;;
66087;SDS011;52872;52.994;6.940;2022-10-31T01:15:14;41.10;;;19.60;;
66087;SDS011;52872;52.994;6.940;2022-10-31T01:17:43;35.92;;;19.65;;
66087;SDS011;52872;52.994;6.940;2022-10-31T01:20:11;35.28;;;19.52;;
66087;SDS011;52872;52.994;6.940;2022-10-31T01:22:39;33.67;;;19.05;;
66087;SDS011;52872;52.994;6.940;2022-10-31T01:25:07;30.20;;;18.58;;
66087;SDS011;52872;52.994;6.940;2022-10-31T01:27:35;36.00;;;20.15;;
66087;SDS011;52872;52.994;6.940;2022-10-31T01:30:02;33.53;;;19.80;;
66087;SDS011;52872;52.994;6.940;2022-10-31T01:32:30;36.15;;;20.42;;
66087;SDS011;52872;52.994;6.940;2022-10-31T01:34:57;35.78;;;20.33;;
66087;SDS011;52872;52.994;6.940;2022-10-31T01:37:24;36.38;;;20.30;;
66087;SDS011;52872;52.994;6.940;2022-10-31T01:39:51;35.80;;;20.70;;
66087;SDS011;52872;52.994;6.940;2022-10-31T01:42:19;38.92;;;21.60;;
66087;SDS011;52872;52.994;6.940;2022-10-31T01:44:52;39.22;;;20.38;;
66087;SDS011;52872;52.994;6.940;2022-10-31T01:47:24;37.50;;;20.58;;
66087;SDS011;52872;52.994;6.940;2022-10-31T01:50:03;37.83;;;20.63;;
66087;SDS011;52872;52.994;6.940;2022-10-31T01:52:37;37.72;;;21.65;;
66087;SDS011;52872;52.994;6.940;2022-10-31T01:55:11;34.20;;;21.35;;
66087;SDS011;52872;52.994;6.940;2022-10-31T01:57:43;39.13;;;21.17;;
66087;SDS011;52872;52.994;6.940;2022-10-31T02:00:16;36.03;;;20.98;;
66087;SDS011;52872;52.994;6.940;2022-10-31T02:02:44;43.10;;;21.15;;
66087;SDS011;52872;52.994;6.940;2022-10-31T02:05:14;33.60;;;20.63;;
66087;SDS011;52872;52.994;6.940;2022-10-31T02:07:54;34.20;;;20.05;;
66087;SDS011;52872;52.994;6.940;2022-10-31T02:10:41;37.17;;;19.70;;
66087;SDS011;52872;52.994;6.940;2022-10-31T02:13:09;35.38;;;20.15;;
66087;SDS011;52872;52.994;6.940;2022-10-31T02:15:44;43.00;;;21.10;;
66087;SDS011;52872;52.994;6.940;2022-10-31T02:18:14;36.13;;;21.30;;
66087;SDS011;52872;52.994;6.940;2022-10-31T02:20:54;36.35;;;20.23;;
66087;SDS011;52872;52.994;6.940;2022-10-31T03:26:39;38.65;;;20.83;;
66087;SDS011;52872;52.994;6.940;2022-10-31T03:29:12;42.97;;;22.42;;
66087;SDS011;52872;52.994;6.940;2022-10-31T03:31:47;43.38;;;22.25;;
66087;SDS011;52872;52.994;6.940;2022-10-31T03:34:37;41.45;;;22.55;;
66087;SDS011;52872;52.994;6.940;2022-10-31T03:37:06;39.42;;;22.00;;
66087;SDS011;52872;52.994;6.940;2022-10-31T03:39:36;43.10;;;21.83;;
66087;SDS011;52872;52.994;6.940;2022-10-31T03:42:07;36.13;;;21.50;;
66087;SDS011;52872;52.994;6.940;2022-10-31T03:44:37;37.80;;;21.77;;
66087;SDS011;52872;52.994;6.940;2022-10-31T03:47:07;38.65;;;21.67;;
66087;SDS011;52872;52.994;6.940;2022-10-31T03:49:34;36.03;;;21.25;;
66087;SDS011;52872;52.994;6.940;2022-10-31T03:54:42;39.30;;;20.95;;
66087;SDS011;52872;52.994;6.940;2022-10-31T03:58:21;36.75;;;20.58;;
66087;SDS011;52872;52.994;6.940;2022-10-31T04:00:30;34.55;;;20.77;;
66087;SDS011;52872;52.994;6.940;2022-10-31T04:03:33;36.70;;;20.15;;
66087;SDS011;52872;52.994;6.940;2022-10-31T04:05:57;40.58;;;22.13;;
66087;SDS011;52872;52.994;6.940;2022-10-31T04:08:29;38.03;;;21.70;;
66087;SDS011;52872;52.994;6.940;2022-10-31T04:10:59;32.08;;;19.98;;
66087;SDS011;52872;52.994;6.940;2022-10-31T04:13:29;31.08;;;19.60;;
66087;SDS011;52872;52.994;6.940;2022-10-31T04:16:05;33.78;;;20.15;;
66087;SDS011;52872;52.994;6.940;2022-10-31T04:18:35;34.30;;;19.95;;
66087;SDS011;52872;52.994;6.940;2022-10-31T04:21:03;32.58;;;20.10;;
66087;SDS011;52872;52.994;6.940;2022-10-31T04:23:32;34.20;;;19.25;;
66087;SDS011;52872;52.994;6.940;2022-10-31T04:26:07;36.30;;;20.10;;
66087;SDS011;52872;52.994;6.940;2022-10-31T04:28:37;35.17;;;19.73;;
66087;SDS011;52872;52.994;6.940;2022-10-31T04:31:05;32.38;;;18.90;;
66087;SDS011;52872;52.994;6.940;2022-10-31T04:33:36;32.55;;;18.70;;
66087;SDS011;52872;52.994;6.940;2022-10-31T04:36:03;31.40;;;19.35;;
66087;SDS011;52872;52.994;6.940;2022-10-31T04:38:33;40.63;;;20.80;;
66087;SDS011;52872;52.994;6.940;2022-10-31T04:41:04;30.45;;;19.33;;
66087;SDS011;52872;52.994;6.940;2022-10-31T04:43:49;34.28;;;19.50;;
66087;SDS011;52872;52.994;6.940;2022-10-31T04:46:17;31.80;;;19.20;;
66087;SDS011;52872;52.994;6.940;2022-10-31T04:48:44;29.70;;;19.42;;
66087;SDS011;52872;52.994;6.940;2022-10-31T04:51:11;33.22;;;19.60;;
66087;SDS011;52872;52.994;6.940;2022-10-31T04:53:39;36.25;;;20.92;;
66087;SDS011;52872;52.994;6.940;2022-10-31T04:56:24;36.95;;;20.73;;
66087;SDS011;52872;52.994;6.940;2022-10-31T04:58:57;32.33;;;19.60;;
66087;SDS011;52872;52.994;6.940;2022-10-31T05:01:26;34.65;;;18.98;;
66087;SDS011;52872;52.994;6.940;2022-10-31T05:03:54;32.35;;;19.83;;
66087;SDS011;52872;52.994;6.940;2022-10-31T05:11:02;34.42;;;19.95;;
66087;SDS011;52872;52.994;6.940;2022-10-31T05:13:29;38.15;;;21.40;;
66087;SDS011;52872;52.994;6.940;2022-10-31T05:16:12;35.92;;;21.42;;
66087;SDS011;52872;52.994;6.940;2022-10-31T05:19:14;35.03;;;20.52;;
66087;SDS011;52872;52.994;6.940;2022-10-31T05:22:00;41.72;;;24.20;;
66087;SDS011;52872;52.994;6.940;2022-10-31T05:24:28;40.83;;;22.77;;
66087;SDS011;52872;52.994;6.940;2022-10-31T05:26:54;37.25;;;21.55;;
66087;SDS011;52872;52.994;6.940;2022-10-31T05:29:21;45.28;;;24.25;;
66087;SDS011;52872;52.994;6.940;2022-10-31T05:31:48;38.80;;;22.02;;
66087;SDS011;52872;52.994;6.940;2022-10-31T05:34:38;45.83;;;24.13;;
66087;SDS011;52872;52.994;6.940;2022-10-31T05:37:38;35.70;;;20.48;;
66087;SDS011;52872;52.994;6.940;2022-10-31T05:40:06;38.83;;;22.05;;
66087;SDS011;52872;52.994;6.940;2022-10-31T05:42:35;39.65;;;21.08;;
66087;SDS011;52872;52.994;6.940;2022-10-31T05:45:04;34.58;;;20.27;;
66087;SDS011;52872;52.994;6.940;2022-10-31T05:47:53;34.65;;;19.92;;
66087;SDS011;52872;52.994;6.940;2022-10-31T05:50:51;41.30;;;22.75;;
66087;SDS011;52872;52.994;6.940;2022-10-31T05:53:18;39.35;;;23.45;;
66087;SDS011;52872;52.994;6.940;2022-10-31T05:55:46;39.00;;;23.23;;
66087;SDS011;52872;52.994;6.940;2022-10-31T05:58:17;43.13;;;24.88;;
66087;SDS011;52872;52.994;6.940;2022-10-31T06:01:04;36.05;;;22.95;;
66087;SDS011;52872;52.994;6.940;2022-10-31T06:03:32;44.35;;;23.52;;
66087;SDS011;52872;52.994;6.940;2022-10-31T06:06:01;45.78;;;25.27;;
66087;SDS011;52872;52.994;6.940;2022-10-31T06:08:40;43.65;;;24.83;;
66087;SDS011;52872;52.994;6.940;2022-10-31T06:11:12;43.58;;;24.67;;
66087;SDS011;52872;52.994;6.940;2022-10-31T06:13:58;48.88;;;27.45;;
66087;SDS011;52872;52.994;6.940;2022-10-31T06:16:32;34.03;;;22.77;;
66087;SDS011;52872;52.994;6.940;2022-10-31T06:19:15;45.47;;;25.20;;
66087;SDS011;52872;52.994;6.940;2022-10-31T06:21:42;39.40;;;23.92;;
66087;SDS011;52872;52.994;6.940;2022-10-31T06:24:09;38.42;;;23.73;;
66087;SDS011;52872;52.994;6.940;2022-10-31T06:26:59;33.25;;;21.60;;
66087;SDS011;52872;52.994;6.940;2022-10-31T06:29:26;35.22;;;23.58;;
66087;SDS011;52872;52.994;6.940;2022-10-31T06:32:04;33.17;;;21.92;;
66087;SDS011;52872;52.994;6.940;2022-10-31T06:34:37;40.35;;;23.50;;
66087;SDS011;52872;52.994;6.940;2022-10-31T06:37:05;35.80;;;21.90;;
66087;SDS011;52872;52.994;6.940;2022-10-31T06:39:34;35.53;;;22.48;;
66087;SDS011;52872;52.994;6.940;2022-10-31T06:42:01;38.72;;;24.15;;
66087;SDS011;52872;52.994;6.940;2022-10-31T06:44:29;37.38;;;23.25;;
66087;SDS011;52872;52.994;6.940;2022-10-31T06:46:56;35.88;;;22.38;;
66087;SDS011;52872;52.994;6.940;2022-10-31T06:49:42;36.28;;;23.45;;
66087;SDS011;52872;52.994;6.940;2022-10-31T06:52:13;31.42;;;21.33;;
66087;SDS011;52872;52.994;6.940;2022-10-31T06:54:40;38.47;;;25.38;;
66087;SDS011;52872;52.994;6.940;2022-10-31T06:57:07;43.30;;;24.73;;
66087;SDS011;52872;52.994;6.940;2022-10-31T06:59:35;42.20;;;25.05;;
66087;SDS011;52872;52.994;6.940;2022-10-31T07:02:02;40.13;;;24.83;;
66087;SDS011;52872;52.994;6.940;2022-10-31T07:04:30;42.47;;;24.13;;
66087;SDS011;52872;52.994;6.940;2022-10-31T07:06:57;49.28;;;25.70;;
66087;SDS011;52872;52.994;6.940;2022-10-31T07:09:23;55.92;;;26.70;;
66087;SDS011;52872;52.994;6.940;2022-10-31T07:11:51;49.47;;;28.00;;
66087;SDS011;52872;52.994;6.940;2022-10-31T07:14:19;43.38;;;25.88;;
66087;SDS011;52872;52.994;6.940;2022-10-31T07:16:50;51.90;;;26.88;;
66087;SDS011;52872;52.994;6.940;2022-10-31T07:19:22;43.38;;;26.67;;
66087;SDS011;52872;52.994;6.940;2022-10-31T07:21:49;48.22;;;27.63;;
66087;SDS011;52872;52.994;6.940;2022-10-31T07:24:17;41.17;;;25.25;;
66087;SDS011;52872;52.994;6.940;2022-10-31T07:27:02;45.90;;;25.92;;
66087;SDS011;52872;52.994;6.940;2022-10-31T07:29:29;42.08;;;25.13;;
66087;SDS011;52872;52.994;6.940;2022-10-31T07:31:56;41.28;;;25.05;;
66087;SDS011;52872;52.994;6.940;2022-10-31T07:34:26;36.28;;;24.45;;
66087;SDS011;52872;52.994;6.940;2022-10-31T07:37:22;29.95;;;22.67;;
66087;SDS011;52872;52.994;6.940;2022-10-31T07:39:54;42.88;;;24.13;;
66087;SDS011;52872;52.994;6.940;2022-10-31T07:42:22;34.53;;;22.58;;
66087;SDS011;52872;52.994;6.940;2022-10-31T07:44:49;35.15;;;23.83;;
66087;SDS011;52872;52.994;6.940;2022-10-31T07:47:39;30.13;;;20.63;;
66087;SDS011;52872;52.994;6.940;2022-10-31T07:50:30;34.95;;;23.05;;
66087;SDS011;52872;52.994;6.940;2022-10-31T07:53:24;29.67;;;20.05;;
66087;SDS011;52872;52.994;6.940;2022-10-31T07:55:54;35.58;;;23.00;;
66087;SDS011;52872;52.994;6.940;2022-10-31T07:58:27;35.67;;;24.90;;
66087;SDS011;52872;52.994;6.940;2022-10-31T08:00:57;40.85;;;25.98;;
66087;SDS011;52872;52.994;6.940;2022-10-31T08:03:32;41.03;;;26.70;;
66087;SDS011;52872;52.994;6.940;2022-10-31T08:06:08;41.75;;;26.55;;
66087;SDS011;52872;52.994;6.940;2022-10-31T08:08:54;41.22;;;25.80;;
66087;SDS011;52872;52.994;6.940;2022-10-31T08:11:21;34.97;;;24.30;;
66087;SDS011;52872;52.994;6.940;2022-10-31T08:13:48;35.75;;;23.92;;
66087;SDS011;52872;52.994;6.940;2022-10-31T08:16:15;30.52;;;22.75;;
66087;SDS011;52872;52.994;6.940;2022-10-31T08:18:52;30.98;;;23.38;;
66087;SDS011;52872;52.994;6.940;2022-10-31T08:21:22;34.15;;;23.17;;
66087;SDS011;52872;52.994;6.940;2022-10-31T08:23:49;31.17;;;23.08;;
66087;SDS011;52872;52.994;6.940;2022-10-31T08:26:18;39.47;;;26.40;;
66087;SDS011;52872;52.994;6.940;2022-10-31T08:28:47;39.03;;;26.33;;
66087;SDS011;52872;52.994;6.940;2022-10-31T08:31:18;39.15;;;26.83;;
66087;SDS011;52872;52.994;6.940;2022-10-31T08:33:45;32.85;;;25.20;;
66087;SDS011;52872;52.994;6.940;2022-10-31T08:36:18;36.70;;;24.93;;
66087;SDS011;52872;52.994;6.940;2022-10-31T08:38:51;36.58;;;25.35;;
66087;SDS011;52872;52.994;6.940;2022-10-31T08:41:23;36.47;;;25.35;;
66087;SDS011;52872;52.994;6.940;2022-10-31T08:43:50;33.53;;;23.27;;
66087;SDS011;52872;52.994;6.940;2022-10-31T08:46:17;32.28;;;24.13;;
66087;SDS011;52872;52.994;6.940;2022-10-31T08:48:47;30.92;;;23.73;;
66087;SDS011;52872;52.994;6.940;2022-10-31T08:51:16;29.67;;;22.83;;
66087;SDS011;52872;52.994;6.940;2022-10-31T08:53:43;29.38;;;23.40;;
66087;SDS011;52872;52.994;6.940;2022-10-31T08:56:28;27.52;;;21.23;;
66087;SDS011;52872;52.994;6.940;2022-10-31T08:58:55;30.67;;;21.65;;
66087;SDS011;52872;52.994;6.940;2022-10-31T09:01:32;25.85;;;20.52;;
66087;SDS011;52872;52.994;6.940;2022-10-31T09:03:59;29.08;;;20.73;;
66087;SDS011;52872;52.994;6.940;2022-10-31T09:06:26;25.70;;;19.15;;
66087;SDS011;52872;52.994;6.940;2022-10-31T09:08:53;25.05;;;19.60;;
66087;SDS011;52872;52.994;6.940;2022-10-31T09:11:24;26.17;;;20.52;;
66087;SDS011;52872;52.994;6.940;2022-10-31T09:14:03;26.02;;;20.90;;
66087;SDS011;52872;52.994;6.940;2022-10-31T09:16:48;22.10;;;18.60;;
66087;SDS011;52872;52.994;6.940;2022-10-31T09:19:20;25.95;;;19.50;;
66087;SDS011;52872;52.994;6.940;2022-10-31T09:21:51;22.38;;;17.92;;
66087;SDS011;52872;52.994;6.940;2022-10-31T09:24:19;26.10;;;20.10;;
66087;SDS011;52872;52.994;6.940;2022-10-31T09:26:46;24.80;;;19.65;;
66087;SDS011;52872;52.994;6.940;2022-10-31T09:29:16;25.05;;;19.40;;
66087;SDS011;52872;52.994;6.940;2022-10-31T09:31:47;25.27;;;18.60;;
66087;SDS011;52872;52.994;6.940;2022-10-31T09:34:25;25.77;;;19.27;;
66087;SDS011;52872;52.994;6.940;2022-10-31T09:37:07;24.30;;;18.98;;
66087;SDS011;52872;52.994;6.940;2022-10-31T09:39:34;26.55;;;19.67;;
66087;SDS011;52872;52.994;6.940;2022-10-31T09:50:22;22.67;;;18.80;;
66087;SDS011;52872;52.994;6.940;2022-10-31T09:53:07;27.35;;;20.95;;
66087;SDS011;52872;52.994;6.940;2022-10-31T09:55:42;24.05;;;20.55;;
66087;SDS011;52872;52.994;6.940;2022-10-31T09:58:15;21.75;;;17.92;;
66087;SDS011;52872;52.994;6.940;2022-10-31T10:00:46;23.75;;;19.65;;
66087;SDS011;52872;52.994;6.940;2022-10-31T10:03:28;24.30;;;19.05;;
66087;SDS011;52872;52.994;6.940;2022-10-31T10:09:12;24.85;;;18.25;;
66087;SDS011;52872;52.994;6.940;2022-10-31T10:12:12;23.17;;;19.13;;
66087;SDS011;52872;52.994;6.940;2022-10-31T10:17:56;23.48;;;19.23;;
66087;SDS011;52872;52.994;6.940;2022-10-31T10:26:03;24.63;;;19.70;;
66087;SDS011;52872;52.994;6.940;2022-10-31T10:28:54;23.90;;;19.17;;
66087;SDS011;52872;52.994;6.940;2022-10-31T10:31:42;23.13;;;18.27;;
66087;SDS011;52872;52.994;6.940;2022-10-31T10:36:58;23.27;;;18.48;;
66087;SDS011;52872;52.994;6.940;2022-10-31T10:39:33;22.77;;;18.17;;
66087;SDS011;52872;52.994;6.940;2022-10-31T10:42:01;23.48;;;17.52;;
66087;SDS011;52872;52.994;6.940;2022-10-31T10:44:56;22.05;;;18.17;;
66087;SDS011;52872;52.994;6.940;2022-10-31T10:47:43;19.63;;;16.00;;
66087;SDS011;52872;52.994;6.940;2022-10-31T10:50:20;20.13;;;16.35;;
66087;SDS011;52872;52.994;6.940;2022-10-31T10:53:00;20.77;;;16.40;;
66087;SDS011;52872;52.994;6.940;2022-10-31T10:55:55;20.02;;;15.43;;
66087;SDS011;52872;52.994;6.940;2022-10-31T10:58:38;21.10;;;15.98;;
66087;SDS011;52872;52.994;6.940;2022-10-31T11:01:12;19.90;;;16.42;;
66087;SDS011;52872;52.994;6.940;2022-10-31T11:03:41;21.90;;;16.23;;
66087;SDS011;52872;52.994;6.940;2022-10-31T11:06:18;18.02;;;14.45;;
66087;SDS011;52872;52.994;6.940;2022-10-31T11:08:52;20.58;;;14.68;;
66087;SDS011;52872;52.994;6.940;2022-10-31T11:11:26;17.63;;;15.73;;
66087;SDS011;52872;52.994;6.940;2022-10-31T11:13:58;20.63;;;16.40;;
66087;SDS011;52872;52.994;6.940;2022-10-31T11:16:30;23.80;;;17.35;;
66087;SDS011;52872;52.994;6.940;2022-10-31T11:19:27;17.20;;;14.48;;
66087;SDS011;52872;52.994;6.940;2022-10-31T11:21:53;17.80;;;14.25;;
66087;SDS011;52872;52.994;6.940;2022-10-31T11:24:35;17.65;;;14.48;;
66087;SDS011;52872;52.994;6.940;2022-10-31T11:27:16;20.08;;;15.07;;
66087;SDS011;52872;52.994;6.940;2022-10-31T11:29:47;20.67;;;13.32;;
66087;SDS011;52872;52.994;6.940;2022-10-31T11:32:19;18.52;;;13.40;;
66087;SDS011;52872;52.994;6.940;2022-10-31T11:35:00;14.55;;;12.07;;
66087;SDS011;52872;52.994;6.940;2022-10-31T11:37:29;14.25;;;11.60;;
66087;SDS011;52872;52.994;6.940;2022-10-31T11:40:02;13.98;;;10.82;;
66087;SDS011;52872;52.994;6.940;2022-10-31T11:42:36;16.75;;;11.43;;
66087;SDS011;52872;52.994;6.940;2022-10-31T11:45:16;17.63;;;11.30;;
66087;SDS011;52872;52.994;6.940;2022-10-31T11:47:45;14.60;;;10.55;;
66087;SDS011;52872;52.994;6.940;2022-10-31T11:50:40;15.45;;;11.82;;
66087;SDS011;52872;52.994;6.940;2022-10-31T11:53:17;17.48;;;11.35;;
66087;SDS011;52872;52.994;6.940;2022-10-31T11:55:59;15.87;;;11.43;;
66087;SDS011;52872;52.994;6.940;2022-10-31T11:58:31;14.65;;;10.93;;
66087;SDS011;52872;52.994;6.940;2022-10-31T12:00:58;15.27;;;11.18;;
66087;SDS011;52872;52.994;6.940;2022-10-31T12:06:06;13.07;;;10.30;;
66087;SDS011;52872;52.994;6.940;2022-10-31T12:08:46;15.00;;;11.13;;
66087;SDS011;52872;52.994;6.940;2022-10-31T12:22:11;15.85;;;9.82;;
66087;SDS011;52872;52.994;6.940;2022-10-31T12:33:26;14.60;;;12.13;;
66087;SDS011;52872;52.994;6.940;2022-10-31T12:36:14;16.40;;;12.77;;
66087;SDS011;52872;52.994;6.940;2022-10-31T12:52:41;18.83;;;12.77;;
66087;SDS011;52872;52.994;6.940;2022-10-31T12:55:29;18.42;;;12.98;;
66087;SDS011;52872;52.994;6.940;2022-10-31T13:00:51;14.00;;;10.57;;
66087;SDS011;52872;52.994;6.940;2022-10-31T13:03:30;18.40;;;11.60;;
66087;SDS011;52872;52.994;6.940;2022-10-31T13:08:50;15.15;;;11.10;;
66087;SDS011;52872;52.994;6.940;2022-10-31T13:16:24;15.27;;;11.68;;
66087;SDS011;52872;52.994;6.940;2022-10-31T13:18:55;14.35;;;11.43;;
66087;SDS011;52872;52.994;6.940;2022-10-31T13:21:35;17.08;;;12.18;;
66087;SDS011;52872;52.994;6.940;2022-10-31T13:24:27;15.07;;;10.85;;
66087;SDS011;52872;52.994;6.940;2022-10-31T13:27:01;16.40;;;11.00;;
66087;SDS011;52872;52.994;6.940;2022-10-31T13:29:37;15.55;;;10.55;;
66087;SDS011;52872;52.994;6.940;2022-10-31T13:32:12;13.60;;;10.65;;
66087;SDS011;52872;52.994;6.940;2022-10-31T13:34:40;16.73;;;9.75;;
66087;SDS011;52872;52.994;6.940;2022-10-31T13:45:21;12.25;;;7.50;;
66087;SDS011;52872;52.994;6.940;2022-10-31T13:47:56;10.52;;;7.50;;
66087;SDS011;52872;52.994;6.940;2022-10-31T13:50:54;12.13;;;7.32;;
66087;SDS011;52872;52.994;6.940;2022-10-31T13:58:34;10.98;;;5.97;;
66087;SDS011;52872;52.994;6.940;2022-10-31T14:03:42;9.30;;;6.10;;
66087;SDS011;52872;52.994;6.940;2022-10-31T14:09:22;10.95;;;5.55;;
66087;SDS011;52872;52.994;6.940;2022-10-31T14:11:56;10.25;;;4.68;;
66087;SDS011;52872;52.994;6.940;2022-10-31T14:14:28;8.07;;;4.30;;
66087;SDS011;52872;52.994;6.940;2022-10-31T14:17:00;10.15;;;4.70;;
66087;SDS011;52872;52.994;6.940;2022-10-31T14:19:27;8.52;;;4.57;;
66087;SDS011;52872;52.994;6.940;2022-10-31T14:21:54;7.95;;;4.10;;
66087;SDS011;52872;52.994;6.940;2022-10-31T14:26:55;5.80;;;4.07;;
66087;SDS011;52872;52.994;6.940;2022-10-31T14:29:32;6.50;;;3.80;;
66087;SDS011;52872;52.994;6.940;2022-10-31T14:32:04;7.50;;;3.95;;
66087;SDS011;52872;52.994;6.940;2022-10-31T14:46:21;9.98;;;3.83;;
66087;SDS011;52872;52.994;6.940;2022-10-31T14:51:18;5.93;;;3.03;;
66087;SDS011;52872;52.994;6.940;2022-10-31T14:53:54;6.45;;;3.28;;
66087;SDS011;52872;52.994;6.940;2022-10-31T14:56:24;4.75;;;3.22;;
66087;SDS011;52872;52.994;6.940;2022-10-31T14:58:52;6.32;;;3.67;;
66087;SDS011;52872;52.994;6.940;2022-10-31T15:01:26;9.65;;;4.05;;
66087;SDS011;52872;52.994;6.940;2022-10-31T15:03:57;6.55;;;3.92;;
66087;SDS011;52872;52.994;6.940;2022-10-31T15:06:52;7.05;;;4.82;;
66087;SDS011;52872;52.994;6.940;2022-10-31T15:09:27;7.30;;;4.45;;
66087;SDS011;52872;52.994;6.940;2022-10-31T15:11:58;7.72;;;5.85;;
66087;SDS011;52872;52.994;6.940;2022-10-31T15:14:27;10.15;;;7.00;;
66087;SDS011;52872;52.994;6.940;2022-10-31T15:17:01;8.68;;;6.10;;
66087;SDS011;52872;52.994;6.940;2022-10-31T15:19:30;11.23;;;6.95;;
66087;SDS011;52872;52.994;6.940;2022-10-31T15:22:00;10.38;;;6.78;;
66087;SDS011;52872;52.994;6.940;2022-10-31T15:24:30;9.90;;;7.05;;
66087;SDS011;52872;52.994;6.940;2022-10-31T15:27:00;9.77;;;7.43;;
66087;SDS011;52872;52.994;6.940;2022-10-31T15:29:30;8.40;;;7.25;;
66087;SDS011;52872;52.994;6.940;2022-10-31T15:32:09;9.00;;;7.65;;
66087;SDS011;52872;52.994;6.940;2022-10-31T15:34:47;12.13;;;8.18;;
66087;SDS011;52872;52.994;6.940;2022-10-31T15:37:15;15.52;;;7.80;;
66087;SDS011;52872;52.994;6.940;2022-10-31T15:39:44;11.10;;;8.43;;
66087;SDS011;52872;52.994;6.940;2022-10-31T15:42:19;12.40;;;8.82;;
66087;SDS011;52872;52.994;6.940;2022-10-31T15:44:53;12.90;;;9.25;;
66087;SDS011;52872;52.994;6.940;2022-10-31T15:47:22;12.35;;;8.98;;
66087;SDS011;52872;52.994;6.940;2022-10-31T15:49:54;12.65;;;9.07;;
66087;SDS011;52872;52.994;6.940;2022-10-31T15:55:16;10.00;;;8.45;;
66087;SDS011;52872;52.994;6.940;2022-10-31T15:58:09;12.77;;;9.35;;
66087;SDS011;52872;52.994;6.940;2022-10-31T16:00:38;12.70;;;9.35;;
66087;SDS011;52872;52.994;6.940;2022-10-31T16:03:06;12.00;;;10.00;;
66087;SDS011;52872;52.994;6.940;2022-10-31T16:05:46;12.48;;;9.60;;
66087;SDS011;52872;52.994;6.940;2022-10-31T16:10:55;17.65;;;10.50;;
66087;SDS011;52872;52.994;6.940;2022-10-31T16:13:26;13.23;;;11.15;;
66087;SDS011;52872;52.994;6.940;2022-10-31T16:15:57;12.13;;;10.00;;
66087;SDS011;52872;52.994;6.940;2022-10-31T16:18:46;16.10;;;11.90;;
66087;SDS011;52872;52.994;6.940;2022-10-31T16:21:14;15.68;;;11.55;;
66087;SDS011;52872;52.994;6.940;2022-10-31T16:23:45;19.55;;;12.90;;
66087;SDS011;52872;52.994;6.940;2022-10-31T16:26:17;15.40;;;12.85;;
66087;SDS011;52872;52.994;6.940;2022-10-31T16:28:52;19.63;;;13.05;;
66087;SDS011;52872;52.994;6.940;2022-10-31T16:31:38;15.30;;;12.77;;
66087;SDS011;52872;52.994;6.940;2022-10-31T16:34:20;19.40;;;14.00;;
66087;SDS011;52872;52.994;6.940;2022-10-31T16:36:52;19.92;;;14.65;;
66087;SDS011;52872;52.994;6.940;2022-10-31T16:39:19;20.55;;;14.23;;
66087;SDS011;52872;52.994;6.940;2022-10-31T16:41:47;20.50;;;15.15;;
66087;SDS011;52872;52.994;6.940;2022-10-31T16:44:26;20.92;;;15.68;;
66087;SDS011;52872;52.994;6.940;2022-10-31T16:47:06;18.13;;;14.93;;
66087;SDS011;52872;52.994;6.940;2022-10-31T16:49:41;18.98;;;14.90;;
66087;SDS011;52872;52.994;6.940;2022-10-31T16:52:09;20.58;;;15.48;;
66087;SDS011;52872;52.994;6.940;2022-10-31T16:54:36;22.17;;;16.17;;
66087;SDS011;52872;52.994;6.940;2022-10-31T16:57:03;24.83;;;16.65;;
66087;SDS011;52872;52.994;6.940;2022-10-31T16:59:32;22.35;;;16.92;;
66087;SDS011;52872;52.994;6.940;2022-10-31T17:02:00;23.15;;;17.25;;
66087;SDS011;52872;52.994;6.940;2022-10-31T17:04:29;24.35;;;18.58;;
66087;SDS011;52872;52.994;6.940;2022-10-31T17:06:56;27.23;;;19.08;;
66087;SDS011;52872;52.994;6.940;2022-10-31T17:09:22;28.40;;;20.42;;
66087;SDS011;52872;52.994;6.940;2022-10-31T17:11:50;28.60;;;18.85;;
66087;SDS011;52872;52.994;6.940;2022-10-31T17:14:19;24.67;;;19.40;;
66087;SDS011;52872;52.994;6.940;2022-10-31T17:16:47;28.27;;;21.90;;
66087;SDS011;52872;52.994;6.940;2022-10-31T17:19:14;31.63;;;21.80;;
66087;SDS011;52872;52.994;6.940;2022-10-31T17:21:41;31.90;;;23.85;;
66087;SDS011;52872;52.994;6.940;2022-10-31T17:24:12;33.25;;;22.00;;
66087;SDS011;52872;52.994;6.940;2022-10-31T17:26:40;31.25;;;22.38;;
66087;SDS011;52872;52.994;6.940;2022-10-31T17:29:07;33.72;;;24.77;;
66087;SDS011;52872;52.994;6.940;2022-10-31T17:31:35;34.33;;;23.10;;
66087;SDS011;52872;52.994;6.940;2022-10-31T17:34:04;34.67;;;24.80;;
66087;SDS011;52872;52.994;6.940;2022-10-31T17:36:32;33.67;;;23.60;;
66087;SDS011;52872;52.994;6.940;2022-10-31T17:39:00;32.47;;;23.58;;
66087;SDS011;52872;52.994;6.940;2022-10-31T17:41:28;36.65;;;24.55;;
66087;SDS011;52872;52.994;6.940;2022-10-31T17:43:56;32.28;;;22.70;;
66087;SDS011;52872;52.994;6.940;2022-10-31T17:46:24;34.65;;;23.38;;
66087;SDS011;52872;52.994;6.940;2022-10-31T17:48:51;32.85;;;24.40;;
66087;SDS011;52872;52.994;6.940;2022-10-31T17:51:18;34.60;;;25.23;;
66087;SDS011;52872;52.994;6.940;2022-10-31T17:53:45;34.88;;;24.17;;
66087;SDS011;52872;52.994;6.940;2022-10-31T17:56:12;37.67;;;27.80;;
66087;SDS011;52872;52.994;6.940;2022-10-31T17:58:39;41.80;;;26.70;;